createdAt,value
2023-08-06T00:01:47.933Z,19.21
2023-08-06T00:06:55.668Z,19.23
2023-08-06T00:12:03.579Z,19.24
2023-08-06T00:17:11.858Z,19.25
2023-08-06T00:22:20.112Z,19.26
2023-08-06T00:27:27.980Z,19.27
2023-08-06T00:32:35.707Z,19.29
2023-08-06T00:37:44.030Z,19.30
2023-08-06T00:42:52.465Z,19.33
2023-08-06T00:48:01.306Z,19.34
2023-08-06T00:53:09.796Z,19.36
2023-08-06T00:58:18.372Z,19.38
2023-08-06T01:03:27.601Z,19.40
2023-08-06T01:08:50.389Z,19.42
2023-08-06T01:14:02.887Z,19.44
2023-08-06T01:19:21.699Z,19.46
2023-08-06T01:24:29.751Z,19.48
2023-08-06T01:29:42.726Z,19.49
2023-08-06T01:34:52.060Z,19.49
2023-08-06T01:40:00.446Z,19.47
2023-08-06T01:45:10.393Z,19.44
2023-08-06T01:50:18.957Z,19.41
2023-08-06T01:55:27.545Z,19.37
2023-08-06T02:00:35.395Z,19.34
2023-08-06T02:05:44.584Z,19.31
2023-08-06T02:10:52.697Z,19.28
2023-08-06T02:16:00.908Z,19.25
2023-08-06T02:21:09.040Z,19.23
2023-08-06T02:26:17.387Z,19.21
2023-08-06T02:31:25.391Z,19.20
2023-08-06T02:36:33.258Z,19.19
2023-08-06T02:41:41.234Z,19.16
2023-08-06T02:46:49.427Z,19.13
2023-08-06T02:51:58.431Z,19.10
2023-08-06T02:57:07.532Z,19.08
2023-08-06T03:02:16.655Z,19.07
2023-08-06T03:07:37.787Z,19.04
2023-08-06T03:12:53.553Z,19.01
2023-08-06T03:18:03.635Z,19.00
2023-08-06T03:23:12.316Z,18.96
2023-08-06T03:28:21.099Z,18.93
2023-08-06T03:33:30.030Z,18.90
2023-08-06T03:38:41.180Z,18.88
2023-08-06T03:43:50.458Z,18.86
2023-08-06T03:49:04.541Z,18.85
2023-08-06T03:54:13.029Z,18.84
2023-08-06T03:59:21.644Z,18.85
2023-08-06T04:04:30.988Z,18.84
2023-08-06T04:09:55.108Z,18.85
2023-08-06T04:15:04.434Z,18.85
2023-08-06T04:20:14.244Z,18.87
2023-08-06T04:25:22.742Z,18.89
2023-08-06T04:30:31.845Z,18.91
2023-08-06T04:35:41.304Z,18.92
2023-08-06T04:40:49.933Z,18.95
2023-08-06T04:46:00.313Z,18.98
2023-08-06T04:51:08.625Z,19.01
2023-08-06T04:56:17.058Z,19.03
2023-08-06T05:01:25.032Z,19.06
2023-08-06T05:06:33.993Z,19.10
2023-08-06T05:11:41.876Z,19.13
2023-08-06T05:16:49.378Z,19.16
2023-08-06T05:21:57.074Z,19.21
2023-08-06T05:27:04.862Z,19.25
2023-08-06T05:32:12.873Z,19.30
2023-08-06T05:37:20.502Z,19.36
2023-08-06T05:42:27.964Z,19.42
2023-08-06T05:47:35.726Z,19.49
2023-08-06T05:52:43.634Z,19.56
2023-08-06T05:57:51.172Z,19.65
2023-08-06T06:02:58.737Z,19.74
2023-08-06T06:08:06.364Z,19.85
2023-08-06T06:13:13.709Z,19.97
2023-08-06T06:18:21.486Z,20.10
2023-08-06T06:23:28.997Z,20.23
2023-08-06T06:28:36.844Z,20.37
2023-08-06T06:33:44.370Z,20.52
2023-08-06T06:38:51.807Z,20.68
2023-08-06T06:44:00.530Z,20.84
2023-08-06T06:49:08.169Z,21.02
2023-08-06T06:54:15.908Z,21.23
2023-08-06T06:59:23.202Z,21.44
2023-08-06T07:04:30.775Z,21.66
2023-08-06T07:09:38.303Z,21.87
2023-08-06T07:14:45.703Z,22.06
2023-08-06T07:19:53.585Z,22.25
2023-08-06T07:25:01.061Z,22.45
2023-08-06T07:30:10.188Z,22.61
2023-08-06T07:35:18.759Z,22.80
2023-08-06T07:40:26.183Z,22.98
2023-08-06T07:45:38.649Z,23.16
2023-08-06T07:50:51.975Z,23.33
2023-08-06T07:56:00.954Z,23.50
2023-08-06T08:01:08.829Z,23.67
2023-08-06T08:12:49.245Z,24.06
2023-08-06T08:17:55.188Z,24.21
2023-08-06T08:23:03.154Z,24.37
2023-08-06T08:28:10.929Z,24.51
2023-08-06T08:33:18.336Z,24.66
2023-08-06T08:38:26.071Z,24.81
2023-08-06T08:43:34.680Z,25.06
2023-08-06T08:48:42.748Z,25.45
2023-08-06T08:53:53.450Z,25.63
2023-08-06T08:59:01.363Z,25.81
2023-08-06T09:04:10.668Z,26.00
2023-08-06T09:09:28.566Z,26.17
2023-08-06T09:14:35.972Z,26.35
2023-08-06T09:19:49.632Z,26.53
2023-08-06T09:24:58.801Z,26.88
2023-08-06T09:30:08.460Z,27.10
2023-08-06T09:35:20.537Z,27.21
2023-08-06T09:40:32.701Z,27.34
2023-08-06T09:45:41.052Z,27.50
2023-08-06T09:50:50.387Z,27.67
2023-08-06T09:55:59.189Z,27.94
2023-08-06T10:01:07.374Z,28.19
2023-08-06T10:06:15.040Z,28.39
2023-08-06T10:11:24.756Z,28.54
2023-08-06T10:16:33.903Z,28.68
2023-08-06T10:21:43.251Z,28.84
2023-08-06T10:26:50.725Z,28.99
2023-08-06T10:32:04.112Z,29.15
2023-08-06T10:37:14.758Z,29.31
2023-08-06T10:42:24.623Z,29.35
2023-08-06T10:47:43.809Z,29.26
2023-08-06T10:52:52.663Z,29.23
2023-08-06T10:58:00.861Z,29.23
2023-08-06T11:03:08.959Z,29.23
2023-08-06T11:08:26.034Z,29.25
2023-08-06T11:13:34.562Z,29.27
2023-08-06T11:18:42.791Z,29.31
2023-08-06T11:23:50.538Z,29.37
2023-08-06T11:28:58.001Z,29.43
2023-08-06T11:34:05.494Z,29.49
2023-08-06T11:39:14.094Z,29.56
2023-08-06T11:44:26.897Z,29.64
2023-08-06T11:49:51.024Z,29.73
2023-08-06T11:55:09.764Z,29.82
2023-08-06T12:00:21.227Z,29.92
2023-08-06T12:05:32.777Z,30.01
2023-08-06T12:10:40.787Z,30.08
2023-08-06T12:15:49.832Z,30.17
2023-08-06T12:20:58.139Z,30.26
2023-08-06T12:26:05.691Z,30.35
2023-08-06T12:31:13.106Z,30.41
2023-08-06T12:36:20.546Z,30.44
2023-08-06T12:41:28.096Z,30.46
2023-08-06T12:46:36.201Z,30.46
2023-08-06T12:51:43.661Z,30.48
2023-08-06T12:56:52.028Z,30.53
2023-08-06T13:01:59.412Z,30.58
2023-08-06T13:07:07.995Z,30.63
2023-08-06T13:12:15.394Z,30.66
2023-08-06T13:17:22.945Z,30.67
2023-08-06T13:22:30.866Z,30.70
2023-08-06T13:27:38.623Z,30.72
2023-08-06T13:32:46.690Z,30.77
2023-08-06T13:37:55.823Z,30.83
2023-08-06T13:43:03.719Z,30.89
2023-08-06T13:48:11.992Z,30.94
2023-08-06T13:53:19.540Z,30.96
2023-08-06T13:58:27.627Z,31.00
2023-08-06T14:03:35.295Z,31.04
2023-08-06T14:08:42.957Z,31.09
2023-08-06T14:13:50.471Z,31.12
2023-08-06T14:18:58.105Z,31.15
2023-08-06T14:24:06.145Z,31.17
2023-08-06T14:29:15.206Z,31.20
2023-08-06T14:34:22.585Z,31.21
2023-08-06T14:39:30.203Z,31.21
2023-08-06T14:44:37.607Z,31.20
2023-08-06T14:49:46.313Z,31.19
2023-08-06T14:54:57.035Z,31.18
2023-08-06T15:00:04.736Z,31.16
2023-08-06T15:05:12.832Z,31.14
2023-08-06T15:10:27.406Z,31.13
2023-08-06T15:15:35.744Z,31.12
2023-08-06T15:20:43.444Z,31.10
2023-08-06T15:25:51.181Z,31.09
2023-08-06T15:31:26.502Z,31.07
2023-08-06T16:10:59.868Z,30.68
2023-08-06T16:16:08.344Z,30.45
2023-08-06T16:41:34.013Z,28.04
2023-08-06T16:46:41.931Z,27.68
2023-08-06T16:51:49.500Z,27.32
2023-08-06T16:56:58.126Z,26.95
2023-08-06T17:02:06.618Z,26.62
2023-08-06T17:07:14.189Z,26.32
2023-08-06T17:12:22.550Z,26.10
2023-08-06T17:17:29.997Z,25.88
2023-08-06T17:22:38.537Z,25.65
2023-08-06T17:27:46.043Z,25.41
2023-08-06T17:32:53.726Z,25.16
2023-08-06T17:38:01.250Z,24.94
2023-08-06T17:43:09.407Z,24.76
2023-08-06T17:48:17.686Z,24.61
2023-08-06T17:53:26.019Z,24.50
2023-08-06T17:58:33.597Z,24.40
2023-08-06T18:03:41.087Z,24.32
2023-08-06T18:08:48.696Z,24.26
2023-08-06T18:13:56.192Z,24.20
2023-08-06T18:19:03.568Z,24.16
2023-08-06T18:24:10.915Z,24.12
2023-08-06T18:29:18.273Z,24.09
2023-08-06T18:34:25.716Z,24.06
2023-08-06T18:39:33.253Z,24.04
2023-08-06T18:44:40.934Z,24.02
2023-08-06T18:49:48.321Z,24.00
2023-08-06T18:54:57.355Z,23.99
2023-08-06T19:00:06.144Z,23.97
2023-08-06T19:05:14.568Z,23.96
2023-08-06T19:10:25.444Z,23.95
2023-08-06T19:15:32.855Z,23.94
2023-08-06T19:20:43.781Z,23.94
2023-08-06T19:25:51.272Z,23.94
2023-08-06T19:31:01.149Z,23.95
2023-08-06T19:36:09.046Z,23.95
2023-08-06T19:41:16.667Z,23.95
2023-08-06T19:46:24.627Z,23.94
2023-08-06T19:51:32.107Z,23.93
2023-08-06T19:56:39.667Z,23.91
2023-08-06T20:01:50.190Z,23.88
2023-08-06T20:06:58.590Z,23.85
2023-08-06T20:12:06.316Z,23.81
2023-08-06T20:17:13.847Z,23.76
2023-08-06T20:22:21.812Z,23.70
2023-08-06T20:27:29.487Z,23.61
2023-08-06T20:32:36.946Z,23.52
2023-08-06T20:37:44.863Z,23.54
2023-08-06T20:42:52.476Z,23.60
2023-08-06T20:48:00.740Z,23.62
2023-08-06T20:53:08.648Z,23.66
2023-08-06T20:58:16.175Z,23.54
2023-08-06T21:03:23.602Z,23.33
2023-08-06T21:08:31.480Z,23.16
2023-08-06T21:13:39.068Z,23.05
2023-08-06T21:18:46.613Z,22.95
2023-08-06T21:23:54.707Z,22.85
2023-08-06T21:29:02.272Z,22.77
2023-08-06T21:34:10.040Z,22.68
2023-08-06T21:39:17.843Z,22.61
2023-08-06T21:44:25.789Z,22.53
2023-08-06T21:49:33.562Z,22.45
2023-08-06T21:54:41.330Z,22.37
2023-08-06T21:59:49.421Z,22.28
2023-08-06T22:04:56.634Z,22.45
2023-08-06T22:10:04.524Z,22.75
2023-08-06T22:15:13.780Z,22.87
2023-08-06T22:20:22.368Z,23.05
2023-08-06T22:25:30.914Z,23.20
2023-08-06T22:30:38.898Z,23.28
2023-08-06T22:35:46.776Z,23.25
2023-08-06T22:40:54.162Z,23.22
2023-08-06T22:46:01.895Z,23.20
2023-08-06T22:51:09.851Z,23.16
2023-08-06T22:56:17.509Z,23.12
2023-08-06T23:01:24.952Z,23.08
2023-08-06T23:06:32.573Z,23.03
2023-08-06T23:11:40.084Z,23.01
2023-08-06T23:16:47.840Z,22.98
2023-08-06T23:21:55.817Z,22.94
2023-08-06T23:27:03.997Z,22.87
2023-08-06T23:32:12.587Z,22.79
2023-08-06T23:37:20.197Z,22.72
2023-08-06T23:42:27.962Z,22.62
2023-08-06T23:47:35.684Z,22.55
2023-08-06T23:52:43.979Z,22.47
2023-08-06T23:57:51.802Z,22.39
